Time;durP1;ratioP1;P1;durP2;ratioP2;P2;SDS_P1;SDS_P2;PMS_P1;PMS_P2;Temp;Humidity;BMP_temperature;BMP_pressure;BME280_temperature;BME280_humidity;BME280_pressure;Samples;Min_cycle;Max_cycle;Signal;HPM_P1;HPM_P2
2023/02/08 00:01:38;;;;;;;43.13;15.93;;;-1.40;93.10;;;;;;5050896;28;20039;-60
2023/02/08 00:04:03;;;;;;;51.65;17.77;;;-1.50;93.00;;;;;;5047427;28;20082;-60
2023/02/08 00:06:29;;;;;;;45.65;16.40;;;-1.60;93.10;;;;;;5049542;28;20068;-61
2023/02/08 00:08:56;;;;;;;45.50;16.92;;;-1.70;93.20;;;;;;5048927;28;20036;-60
2023/02/08 00:11:21;;;;;;;51.35;18.40;;;-1.70;93.50;;;;;;5050393;28;20021;-60
2023/02/08 00:13:47;;;;;;;44.95;16.70;;;-1.80;93.50;;;;;;5048228;28;20039;-60
2023/02/08 00:16:15;;;;;;;31.02;13.48;;;-1.80;93.60;;;;;;5048624;28;20041;-60
2023/02/08 00:18:41;;;;;;;30.67;11.95;;;-1.80;93.50;;;;;;5050419;28;20043;-60
2023/02/08 00:21:09;;;;;;;33.08;12.57;;;-1.80;93.60;;;;;;5047445;28;20033;-60
2023/02/08 00:23:35;;;;;;;36.13;13.50;;;-1.80;93.50;;;;;;5047786;28;20033;-60
2023/02/08 00:26:01;;;;;;;37.25;14.25;;;-1.90;93.60;;;;;;5048266;28;20057;-61
2023/02/08 00:28:27;;;;;;;28.60;11.88;;;-1.80;93.80;;;;;;5049297;28;20444;-60
2023/02/08 00:30:52;;;;;;;31.77;12.57;;;-1.80;93.80;;;;;;5030100;28;20098;-59
2023/02/08 00:33:18;;;;;;;28.45;12.65;;;-1.90;93.80;;;;;;5048832;28;20036;-60
2023/02/08 00:35:44;;;;;;;27.23;12.35;;;-1.90;93.70;;;;;;5030901;28;20432;-60
2023/02/08 00:38:10;;;;;;;27.60;11.18;;;-2.00;93.80;;;;;;5048110;28;20456;-60
2023/02/08 00:40:36;;;;;;;27.50;12.38;;;-2.00;93.90;;;;;;5051092;28;20036;-61
2023/02/08 00:43:02;;;;;;;38.63;14.00;;;-2.00;94.00;;;;;;5030464;28;20060;-60
2023/02/08 00:45:28;;;;;;;36.65;13.88;;;-2.00;93.90;;;;;;5030075;28;20035;-60
2023/02/08 00:47:55;;;;;;;23.20;11.23;;;-2.00;93.40;;;;;;5032352;28;20246;-60
2023/02/08 00:50:21;;;;;;;25.35;11.05;;;-2.00;93.10;;;;;;5052236;28;20642;-59
2023/02/08 00:52:47;;;;;;;23.83;10.32;;;-2.00;93.00;;;;;;5048045;28;20162;-60
2023/02/08 00:55:13;;;;;;;20.05;10.45;;;-2.10;93.00;;;;;;5049273;28;20131;-60
2023/02/08 00:57:38;;;;;;;25.65;11.27;;;-2.10;93.20;;;;;;5054828;28;20123;-60
2023/02/08 01:00:06;;;;;;;25.30;9.98;;;-2.20;93.40;;;;;;5033550;28;20048;-60
2023/02/08 01:02:32;;;;;;;32.75;11.70;;;-2.20;93.50;;;;;;5032888;28;20099;-60
2023/02/08 01:04:57;;;;;;;36.33;15.70;;;-2.20;93.50;;;;;;5052633;28;20100;-60
2023/02/08 01:07:23;;;;;;;34.38;14.00;;;-2.30;93.60;;;;;;5055149;28;20119;-59
2023/02/08 01:09:49;;;;;;;34.15;13.98;;;-2.30;93.50;;;;;;5051600;28;20024;-62
2023/02/08 01:12:15;;;;;;;33.08;12.93;;;-2.30;93.70;;;;;;5052342;28;20036;-60
2023/02/08 01:14:41;;;;;;;34.20;14.32;;;-2.30;94.20;;;;;;5053706;28;20071;-59
2023/02/08 01:17:07;;;;;;;42.65;16.85;;;-2.30;94.20;;;;;;5033110;28;20524;-60
2023/02/08 01:19:33;;;;;;;41.15;16.83;;;-2.30;94.30;;;;;;5054366;28;20480;-60
2023/02/08 01:22:02;;;;;;;42.58;15.93;;;-2.30;94.30;;;;;;5031387;28;20102;-59
2023/02/08 01:24:27;;;;;;;48.83;18.00;;;-2.30;94.40;;;;;;5033297;28;20033;-60
2023/02/08 01:26:53;;;;;;;75.10;25.65;;;-2.30;93.90;;;;;;5035220;28;20051;-60
2023/02/08 01:29:19;;;;;;;73.78;24.95;;;-2.30;94.10;;;;;;5053041;28;20036;-60
2023/02/08 01:31:45;;;;;;;82.93;28.20;;;-2.30;93.70;;;;;;5051476;28;20021;-62
2023/02/08 01:34:11;;;;;;;92.53;32.35;;;-2.40;93.60;;;;;;5050832;28;20029;-61
2023/02/08 01:36:38;;;;;;;68.05;24.55;;;-2.40;93.50;;;;;;5031302;28;20038;-60
2023/02/08 01:39:05;;;;;;;78.88;26.67;;;-2.40;93.50;;;;;;5031895;28;20921;-59
2023/02/08 01:41:35;;;;;;;51.70;18.98;;;-2.50;93.70;;;;;;5052033;28;20048;-62
2023/02/08 01:44:10;;;;;;;48.92;17.67;;;-2.50;93.50;;;;;;5050676;28;20029;-62
2023/02/08 01:46:41;;;;;;;41.13;16.77;;;-2.60;93.60;;;;;;5051771;28;20035;-59
2023/02/08 01:49:26;;;;;;;30.15;13.60;;;-2.60;93.80;;;;;;5049637;28;20032;-59
2023/02/08 01:52:00;;;;;;;29.80;12.95;;;-2.60;93.90;;;;;;5031565;28;20547;-59
2023/02/08 01:54:30;;;;;;;26.83;10.90;;;-2.60;93.70;;;;;;5051846;28;20040;-60
2023/02/08 01:56:56;;;;;;;26.30;11.73;;;-2.60;93.60;;;;;;5031486;28;20040;-59
2023/02/08 01:59:35;;;;;;;32.03;11.40;;;-2.60;93.40;;;;;;5033342;28;20032;-60
2023/02/08 02:02:03;;;;;;;27.25;12.02;;;-2.60;93.50;;;;;;5052342;28;20032;-61
2023/02/08 02:04:29;;;;;;;22.65;9.68;;;-2.70;93.50;;;;;;5051102;28;20381;-59
2023/02/08 02:07:00;;;;;;;23.58;9.90;;;-2.70;93.50;;;;;;5049738;28;20031;-60
2023/02/08 02:09:48;;;;;;;24.73;10.18;;;-2.70;93.30;;;;;;5036043;28;20550;-59
2023/02/08 02:12:16;;;;;;;23.50;10.35;;;-2.70;93.30;;;;;;5048498;28;20036;-59
2023/02/08 02:14:43;;;;;;;28.73;11.15;;;-2.80;93.60;;;;;;5031920;28;20109;-60
2023/02/08 02:17:13;;;;;;;25.58;11.48;;;-2.80;93.90;;;;;;5031661;28;20059;-62
2023/02/08 02:20:07;;;;;;;25.60;10.27;;;-2.80;93.90;;;;;;5035158;28;20040;-63
2023/02/08 02:23:15;;;;;;;25.33;9.80;;;-2.80;94.10;;;;;;5051919;28;20024;-59
2023/02/08 02:26:08;;;;;;;25.90;11.57;;;-2.80;94.30;;;;;;5032436;28;20074;-59
2023/02/08 02:29:04;;;;;;;21.90;11.07;;;-2.80;94.50;;;;;;5047612;28;20144;-60
2023/02/08 02:32:01;;;;;;;23.50;11.05;;;-2.80;95.00;;;;;;5051508;28;20021;-62
2023/02/08 02:34:36;;;;;;;24.02;11.27;;;-2.80;95.40;;;;;;5051843;28;20061;-62
2023/02/08 02:37:33;;;;;;;24.40;10.60;;;-2.70;95.30;;;;;;5050114;28;20029;-59
2023/02/08 02:40:23;;;;;;;29.52;11.73;;;-2.70;95.40;;;;;;5050308;28;20029;-62
2023/02/08 02:46:12;;;;;;;28.58;11.45;;;-2.60;96.00;;;;;;5049549;28;20495;-61
2023/02/08 02:48:41;;;;;;;28.10;12.57;;;-2.60;96.20;;;;;;5031954;28;20441;-62
2023/02/08 02:51:27;;;;;;;30.80;12.00;;;-2.60;96.40;;;;;;5051084;28;20489;-61
2023/02/08 02:54:21;;;;;;;23.88;11.90;;;-2.50;96.50;;;;;;5048044;28;20028;-62
2023/02/08 02:56:52;;;;;;;23.50;11.38;;;-2.50;96.50;;;;;;5049601;28;20037;-62
2023/02/08 02:59:19;;;;;;;28.85;13.00;;;-2.50;96.60;;;;;;5048979;28;20159;-62
2023/02/08 03:01:46;;;;;;;26.25;11.45;;;-2.40;96.60;;;;;;5046028;28;20035;-61
2023/02/08 03:04:18;;;;;;;30.33;12.20;;;-2.40;96.50;;;;;;5049943;28;20040;-62
2023/02/08 03:07:10;;;;;;;29.80;12.77;;;-2.30;96.20;;;;;;5048190;28;20154;-61
2023/02/08 03:09:45;;;;;;;25.38;12.50;;;-2.20;96.10;;;;;;5048595;28;20036;-61
2023/02/08 03:12:13;;;;;;;31.75;12.18;;;-2.20;96.10;;;;;;5050387;28;20032;-59
2023/02/08 03:15:08;;;;;;;28.67;13.05;;;-2.20;96.20;;;;;;5049378;28;20062;-60
2023/02/08 03:17:43;;;;;;;24.38;11.70;;;-2.20;96.30;;;;;;5051391;28;20029;-61
2023/02/08 03:20:10;;;;;;;31.38;13.88;;;-2.20;96.60;;;;;;5051208;28;20041;-59
2023/02/08 03:23:06;;;;;;;29.85;12.32;;;-2.20;96.20;;;;;;5050046;28;20131;-61
2023/02/08 03:25:53;;;;;;;28.88;13.57;;;-2.20;96.10;;;;;;5050378;28;20122;-62
2023/02/08 03:28:22;;;;;;;29.73;13.70;;;-2.20;95.60;;;;;;5051261;28;20508;-62
2023/02/08 03:30:53;;;;;;;31.58;14.60;;;-2.20;95.00;;;;;;5048308;28;20508;-61
2023/02/08 03:34:00;;;;;;;37.05;16.27;;;-2.20;94.80;;;;;;5046925;28;20065;-61
2023/02/08 03:36:31;;;;;;;;;;;-2.20;94.80;;;;;;5050318;28;20071;-62
2023/02/08 03:39:00;;;;;;;34.75;13.80;;;-2.30;94.70;;;;;;5046454;28;20466;-61
2023/02/08 03:41:33;;;;;;;29.48;13.77;;;-2.30;94.80;;;;;;5049228;28;20786;-62
2023/02/08 03:44:10;;;;;;;30.25;13.15;;;-2.40;95.30;;;;;;5047951;28;20045;-62
2023/02/08 03:46:41;;;;;;;26.40;12.43;;;-2.40;95.70;;;;;;5049041;28;20138;-60
2023/02/08 03:49:14;;;;;;;28.85;13.60;;;-2.40;95.80;;;;;;5048313;28;20556;-62
2023/02/08 03:51:42;;;;;;;30.55;13.70;;;-2.40;96.00;;;;;;5048498;28;20454;-61
2023/02/08 03:54:21;;;;;;;36.80;16.08;;;-2.40;96.10;;;;;;5047767;28;20151;-61
2023/02/08 03:56:59;;;;;;;32.00;14.18;;;-2.30;96.10;;;;;;5045012;28;20035;-61
2023/02/08 03:59:31;;;;;;;31.63;14.07;;;-2.20;96.10;;;;;;5049171;28;20726;-61
2023/02/08 04:02:02;;;;;;;32.50;13.38;;;-2.20;96.20;;;;;;5048696;28;20766;-61
2023/02/08 04:04:33;;;;;;;36.45;14.63;;;-2.20;96.20;;;;;;5048809;28;20118;-61
2023/02/08 04:06:59;;;;;;;30.60;13.07;;;-2.20;96.40;;;;;;5050050;28;20074;-60
2023/02/08 04:09:25;;;;;;;32.40;13.38;;;-2.20;96.40;;;;;;5047088;28;20047;-62
2023/02/08 04:11:51;;;;;;;23.95;12.13;;;-2.20;96.10;;;;;;5051161;28;20916;-61
2023/02/08 04:14:16;;;;;;;26.13;12.32;;;-2.20;95.80;;;;;;5049323;28;20032;-60
2023/02/08 04:16:42;;;;;;;28.42;13.68;;;-2.20;95.50;;;;;;5045083;28;20025;-61
2023/02/08 04:19:08;;;;;;;31.38;13.13;;;-2.30;95.30;;;;;;5047884;28;20096;-62
2023/02/08 04:21:34;;;;;;;29.63;13.10;;;-2.30;95.20;;;;;;5050093;28;20032;-61
2023/02/08 04:23:59;;;;;;;29.45;13.43;;;-2.40;95.20;;;;;;5047439;28;20044;-61
2023/02/08 04:26:26;;;;;;;31.02;12.95;;;-2.40;95.00;;;;;;5050995;28;20033;-61
2023/02/08 04:28:51;;;;;;;28.45;12.35;;;-2.40;95.00;;;;;;5048819;28;20070;-62
2023/02/08 04:31:17;;;;;;;34.42;13.05;;;-2.40;95.00;;;;;;5046612;28;20121;-61
2023/02/08 04:33:43;;;;;;;26.45;11.70;;;-2.40;95.00;;;;;;5046668;28;20041;-62
2023/02/08 04:36:09;;;;;;;25.65;12.00;;;-2.40;95.00;;;;;;5047161;28;20234;-61
2023/02/08 04:38:35;;;;;;;32.60;15.23;;;-2.40;95.00;;;;;;5049068;28;20671;-62
2023/02/08 04:41:01;;;;;;;32.25;14.30;;;-2.40;94.60;;;;;;5045333;28;20035;-60
2023/02/08 04:43:27;;;;;;;34.10;14.15;;;-2.40;93.90;;;;;;5046930;28;20036;-61
2023/02/08 04:45:52;;;;;;;29.58;12.48;;;-2.50;93.40;;;;;;5048378;28;20067;-62
2023/02/08 04:48:19;;;;;;;31.45;13.73;;;-2.60;93.40;;;;;;5048422;28;20054;-62
2023/02/08 04:50:45;;;;;;;31.23;14.18;;;-2.60;93.50;;;;;;5049914;28;20028;-62
2023/02/08 04:53:11;;;;;;;36.42;15.00;;;-2.70;93.40;;;;;;5045938;28;20458;-62
2023/02/08 04:55:37;;;;;;;33.28;14.27;;;-2.70;93.50;;;;;;5050181;28;20037;-62
2023/02/08 04:58:02;;;;;;;35.28;13.43;;;-2.70;93.50;;;;;;5046819;28;20158;-62
2023/02/08 05:00:29;;;;;;;30.60;13.63;;;-2.80;93.20;;;;;;5047802;28;20110;-62
2023/02/08 05:02:57;;;;;;;30.48;14.70;;;-2.80;93.40;;;;;;5048847;28;20041;-62
2023/02/08 05:05:24;;;;;;;34.60;15.10;;;-2.90;93.90;;;;;;5046152;28;20251;-60
2023/02/08 05:07:50;;;;;;;42.40;17.98;;;-2.80;94.20;;;;;;5050449;28;20567;-61
2023/02/08 05:10:17;;;;;;;44.63;18.75;;;-2.80;94.50;;;;;;5048098;28;20060;-61
2023/02/08 05:12:42;;;;;;;42.67;18.88;;;-2.80;94.80;;;;;;5048524;28;20040;-62
2023/02/08 05:15:09;;;;;;;54.97;20.60;;;-2.80;94.80;;;;;;5048246;28;20032;-62
2023/02/08 05:17:35;;;;;;;58.85;23.38;;;-2.80;94.70;;;;;;5049124;28;20028;-60
2023/02/08 05:20:02;;;;;;;49.30;20.60;;;-2.80;94.50;;;;;;5047371;28;20483;-60
2023/02/08 05:22:28;;;;;;;66.55;22.73;;;-2.80;94.40;;;;;;5048556;28;20051;-62
2023/02/08 05:24:54;;;;;;;64.00;21.15;;;-2.80;94.30;;;;;;5048832;28;20040;-60
2023/02/08 05:27:20;;;;;;;60.22;18.67;;;-2.90;94.10;;;;;;5049630;28;20124;-62
2023/02/08 05:29:46;;;;;;;48.42;18.15;;;-2.90;94.00;;;;;;5046863;28;20633;-61
2023/02/08 05:32:11;;;;;;;44.95;17.40;;;-3.00;94.00;;;;;;5047307;28;20025;-62
2023/02/08 05:34:37;;;;;;;40.33;16.55;;;-3.00;93.90;;;;;;5049548;28;20090;-61
2023/02/08 05:37:04;;;;;;;44.45;18.08;;;-3.00;94.10;;;;;;5045222;28;20028;-62
2023/02/08 05:39:29;;;;;;;47.00;16.98;;;-3.00;94.00;;;;;;5048085;28;20041;-62
2023/02/08 05:41:55;;;;;;;39.42;16.45;;;-3.00;93.90;;;;;;5042274;28;20037;-61
2023/02/08 05:44:21;;;;;;;39.22;15.88;;;-3.00;93.50;;;;;;5047334;28;20120;-60
2023/02/08 05:46:47;;;;;;;41.35;14.93;;;-3.00;93.50;;;;;;5046593;28;20144;-61
2023/02/08 05:49:12;;;;;;;35.08;14.40;;;-3.10;93.60;;;;;;5038311;28;20262;-62
2023/02/08 05:51:38;;;;;;;40.47;17.48;;;-3.10;93.80;;;;;;5051755;28;20035;-62
2023/02/08 05:54:04;;;;;;;34.47;15.75;;;-3.10;93.90;;;;;;5043609;28;20039;-61
2023/02/08 05:56:30;;;;;;;32.30;15.02;;;-3.10;94.20;;;;;;5053537;28;20158;-62
2023/02/08 05:58:59;;;;;;;39.67;16.58;;;-3.10;94.10;;;;;;5049016;28;20075;-62
2023/02/08 06:01:24;;;;;;;38.75;17.55;;;-3.10;93.90;;;;;;5040019;28;20564;-61
2023/02/08 06:03:50;;;;;;;42.03;16.77;;;-3.10;94.00;;;;;;5028675;28;20040;-61
2023/02/08 06:06:16;;;;;;;42.28;16.63;;;-3.10;94.00;;;;;;5042365;28;20036;-61
2023/02/08 06:08:42;;;;;;;38.10;16.48;;;-3.10;94.10;;;;;;5048975;28;20472;-59
2023/02/08 06:11:08;;;;;;;40.72;17.88;;;-3.10;94.00;;;;;;5038335;28;20032;-61
2023/02/08 06:13:33;;;;;;;38.47;17.63;;;-3.10;94.30;;;;;;5056749;28;20040;-61
2023/02/08 06:15:59;;;;;;;42.78;17.17;;;-3.10;94.80;;;;;;5045045;28;20040;-60
2023/02/08 06:18:25;;;;;;;41.13;16.80;;;-3.10;95.20;;;;;;5043695;28;20040;-61
2023/02/08 06:20:52;;;;;;;46.63;19.65;;;-3.10;95.70;;;;;;5048306;28;20052;-61
2023/02/08 06:23:19;;;;;;;39.08;17.63;;;-3.00;95.70;;;;;;5054018;28;20516;-61
2023/02/08 06:25:44;;;;;;;39.88;17.88;;;-2.90;95.60;;;;;;5038472;28;20120;-62
2023/02/08 06:28:10;;;;;;;40.08;17.40;;;-2.90;96.00;;;;;;5040463;28;20116;-62
2023/02/08 06:30:37;;;;;;;45.80;19.45;;;-2.90;95.80;;;;;;5050286;28;20392;-61
2023/02/08 06:33:03;;;;;;;48.45;18.83;;;-2.80;95.60;;;;;;5046312;28;20043;-61
2023/02/08 06:35:30;;;;;;;42.55;18.58;;;-2.70;95.30;;;;;;5047464;28;20110;-62
2023/02/08 06:37:57;;;;;;;45.85;18.20;;;-2.70;95.10;;;;;;5047615;28;20099;-61
2023/02/08 06:40:23;;;;;;;39.60;17.65;;;-2.60;94.90;;;;;;5041964;28;20107;-62
2023/02/08 06:42:49;;;;;;;47.10;18.38;;;-2.60;94.60;;;;;;5046407;28;20274;-62
2023/02/08 06:45:16;;;;;;;44.85;19.65;;;-2.60;94.50;;;;;;5045852;28;20207;-62
2023/02/08 06:47:42;;;;;;;47.80;20.10;;;-2.50;94.50;;;;;;5046022;28;20063;-61
2023/02/08 06:50:09;;;;;;;42.83;19.73;;;-2.60;95.20;;;;;;5047650;28;20028;-62
2023/02/08 06:52:34;;;;;;;41.78;18.05;;;-2.50;95.40;;;;;;5041636;28;20404;-62
2023/02/08 06:55:00;;;;;;;41.35;18.63;;;-2.50;95.50;;;;;;5045143;28;20037;-62
2023/02/08 06:57:26;;;;;;;48.60;19.92;;;-2.50;95.50;;;;;;5045311;28;20044;-61
2023/02/08 06:59:52;;;;;;;43.60;19.00;;;-2.40;95.50;;;;;;5049837;28;20040;-65
2023/02/08 07:02:19;;;;;;;42.67;18.70;;;-2.30;95.40;;;;;;5052310;28;20052;-62
2023/02/08 07:04:46;;;;;;;43.75;20.35;;;-2.30;95.50;;;;;;5038801;28;20032;-61
2023/02/08 07:07:13;;;;;;;46.00;17.67;;;-2.20;95.60;;;;;;5042513;28;20033;-62
2023/02/08 07:09:39;;;;;;;42.10;17.88;;;-2.30;95.50;;;;;;5047998;28;20483;-61
2023/02/08 07:12:05;;;;;;;43.65;18.55;;;-2.20;95.60;;;;;;5044067;28;20032;-61
2023/02/08 07:14:33;;;;;;;43.10;18.65;;;-2.20;95.70;;;;;;5044180;28;20143;-61
2023/02/08 07:16:59;;;;;;;46.22;18.77;;;-2.20;95.60;;;;;;5043424;28;20373;-61
2023/02/08 07:19:26;;;;;;;43.22;18.30;;;-2.10;95.30;;;;;;5043877;28;20163;-62
2023/02/08 07:21:52;;;;;;;44.63;18.55;;;-2.10;95.10;;;;;;5046141;28;20032;-61
2023/02/08 07:24:18;;;;;;;39.60;17.45;;;-2.10;95.10;;;;;;5046016;28;20044;-61
2023/02/08 07:26:43;;;;;;;44.65;18.48;;;-2.10;95.00;;;;;;5045651;28;20024;-62
2023/02/08 07:29:09;;;;;;;38.20;17.88;;;-2.00;95.10;;;;;;5039662;28;20113;-62
2023/02/08 07:31:35;;;;;;;43.67;18.48;;;-2.00;95.30;;;;;;5048796;28;20021;-61
2023/02/08 07:34:01;;;;;;;45.10;18.35;;;-2.00;95.20;;;;;;5044889;28;20067;-61
2023/02/08 07:36:27;;;;;;;40.33;19.25;;;-1.90;95.30;;;;;;5046765;28;20095;-62
2023/02/08 07:38:52;;;;;;;44.80;20.35;;;-1.80;95.30;;;;;;5047856;28;20831;-62
2023/02/08 07:41:18;;;;;;;50.63;19.38;;;-1.80;95.20;;;;;;5046833;28;20048;-62
2023/02/08 07:43:44;;;;;;;43.90;20.00;;;-1.70;95.20;;;;;;5046625;28;20029;-62
2023/02/08 07:46:13;;;;;;;42.63;18.95;;;-1.70;95.30;;;;;;5038809;28;20037;-62
2023/02/08 07:48:39;;;;;;;41.67;18.30;;;-1.60;95.30;;;;;;5045608;28;20227;-63
2023/02/08 07:51:06;;;;;;;41.30;17.85;;;-1.50;95.10;;;;;;5047270;28;20020;-63
2023/02/08 07:53:32;;;;;;;37.38;16.05;;;-1.40;94.80;;;;;;5035670;28;20025;-63
2023/02/08 07:55:58;;;;;;;41.83;18.33;;;-1.40;94.80;;;;;;5043902;28;20633;-63
2023/02/08 07:58:25;;;;;;;34.17;17.52;;;-1.30;94.80;;;;;;5052429;28;20039;-63
2023/02/08 08:00:51;;;;;;;37.05;16.70;;;-1.20;94.60;;;;;;5043296;28;20106;-64
2023/02/08 08:03:17;;;;;;;37.65;17.55;;;-1.10;94.60;;;;;;5050333;28;20029;-63
2023/02/08 08:05:43;;;;;;;41.03;17.40;;;-1.00;95.00;;;;;;5043851;28;20884;-62
2023/02/08 08:08:09;;;;;;;38.78;17.25;;;-0.70;95.00;;;;;;5018545;28;20036;-63
2023/02/08 08:10:35;;;;;;;40.65;16.63;;;-0.50;94.10;;;;;;5038046;28;20055;-63
2023/02/08 08:13:02;;;;;;;41.13;17.48;;;-0.40;93.20;;;;;;5046195;28;20025;-61
2023/02/08 08:15:28;;;;;;;35.20;16.98;;;-0.30;92.60;;;;;;5041642;28;20032;-62
2023/02/08 08:17:54;;;;;;;35.72;16.65;;;-0.20;92.50;;;;;;5047905;28;20682;-63
2023/02/08 08:20:20;;;;;;;38.47;16.75;;;-0.10;93.10;;;;;;5044837;28;20044;-62
2023/02/08 08:22:46;;;;;;;38.78;17.30;;;0.20;92.50;;;;;;5042082;28;20028;-62
2023/02/08 08:25:12;;;;;;;40.85;17.40;;;0.40;91.60;;;;;;5041242;28;20044;-63
2023/02/08 08:27:39;;;;;;;33.63;16.23;;;0.60;91.60;;;;;;5046487;28;20030;-60
2023/02/08 08:30:11;;;;;;;37.85;17.40;;;0.70;90.80;;;;;;5041940;28;20060;-62
2023/02/08 08:32:37;;;;;;;36.65;16.98;;;0.80;90.80;;;;;;5036727;28;20410;-63
2023/02/08 08:35:05;;;;;;;38.90;17.02;;;0.90;90.80;;;;;;5039611;28;20028;-62
2023/02/08 08:37:30;;;;;;;42.13;17.40;;;0.90;90.40;;;;;;5044885;28;20141;-62
2023/02/08 08:39:56;;;;;;;37.80;17.40;;;1.00;90.40;;;;;;5041700;28;20484;-62
2023/02/08 08:42:22;;;;;;;35.42;16.95;;;1.00;90.40;;;;;;5047864;28;20037;-64
2023/02/08 08:44:48;;;;;;;39.25;16.60;;;1.00;90.60;;;;;;5048723;28;20103;-62
2023/02/08 08:47:14;;;;;;;36.47;16.40;;;1.00;90.50;;;;;;5043584;28;20055;-63
2023/02/08 08:49:41;;;;;;;38.97;15.90;;;1.10;90.20;;;;;;5047644;28;20031;-63
2023/02/08 08:52:07;;;;;;;35.45;16.42;;;1.10;90.30;;;;;;5043227;28;20867;-63
2023/02/08 08:54:34;;;;;;;32.90;15.25;;;1.20;88.00;;;;;;5044799;28;20104;-63
2023/02/08 08:57:00;;;;;;;34.15;16.15;;;1.30;88.60;;;;;;5039914;28;20055;-63
2023/02/08 08:59:26;;;;;;;35.28;14.88;;;1.40;88.50;;;;;;5042355;28;20036;-62
2023/02/08 09:01:52;;;;;;;36.85;17.02;;;1.60;87.70;;;;;;5051980;28;20404;-63
2023/02/08 09:04:21;;;;;;;35.80;14.52;;;1.70;87.10;;;;;;5042027;28;20075;-63
2023/02/08 09:06:48;;;;;;;36.25;17.40;;;1.80;87.40;;;;;;5044772;28;20598;-63
2023/02/08 09:09:14;;;;;;;41.88;18.85;;;1.80;85.20;;;;;;5048521;28;20382;-63
2023/02/08 09:11:39;;;;;;;37.65;17.13;;;1.90;85.20;;;;;;5045612;28;20035;-63
2023/02/08 09:14:06;;;;;;;39.85;17.75;;;1.70;84.20;;;;;;5042081;28;20036;-64
2023/02/08 09:16:32;;;;;;;37.53;16.33;;;1.70;84.70;;;;;;5049439;28;20036;-63
2023/02/08 09:19:03;;;;;;;42.92;17.75;;;1.60;84.40;;;;;;5049469;28;20471;-63
2023/02/08 09:21:29;;;;;;;45.13;17.92;;;1.60;85.80;;;;;;5044422;28;20108;-62
2023/02/08 09:23:55;;;;;;;37.80;18.52;;;1.60;85.90;;;;;;5047396;28;20508;-62
2023/02/08 09:26:21;;;;;;;38.60;17.98;;;1.60;86.80;;;;;;5046126;28;20037;-61
2023/02/08 09:28:47;;;;;;;42.25;17.60;;;1.70;86.10;;;;;;5049275;28;20034;-61
2023/02/08 09:31:26;;;;;;;36.80;16.00;;;1.80;85.20;;;;;;5048481;28;20072;-64
2023/02/08 09:33:55;;;;;;;42.85;18.08;;;2.20;83.90;;;;;;5048689;28;20169;-62
2023/02/08 09:36:23;;;;;;;41.70;18.30;;;3.30;80.00;;;;;;5042549;28;20385;-61
2023/02/08 09:38:52;;;;;;;42.72;18.35;;;4.40;76.30;;;;;;5046218;28;20119;-60
2023/02/08 09:41:52;;;;;;;38.00;18.17;;;5.20;69.00;;;;;;5044492;28;20130;-61
2023/02/08 09:44:55;;;;;;;37.60;16.60;;;5.40;67.10;;;;;;5038463;28;20025;-63
2023/02/08 09:47:57;;;;;;;39.80;17.88;;;5.20;67.20;;;;;;5047373;28;20028;-61
2023/02/08 09:50:45;;;;;;;36.63;17.02;;;5.60;66.10;;;;;;5048584;28;20082;-62
2023/02/08 09:53:20;;;;;;;40.72;17.65;;;6.50;62.90;;;;;;5047559;28;20025;-61
2023/02/08 09:55:54;;;;;;;39.22;18.48;;;7.00;60.30;;;;;;5050703;28;20082;-62
2023/02/08 09:58:41;;;;;;;38.55;18.23;;;7.60;58.30;;;;;;5047271;28;20047;-61
2023/02/08 10:01:24;;;;;;;35.47;17.95;;;7.80;56.80;;;;;;5042681;28;20051;-61
2023/02/08 10:03:56;;;;;;;43.17;18.65;;;8.00;56.10;;;;;;5046297;28;20037;-61
2023/02/08 10:06:22;;;;;;;39.83;18.70;;;8.20;56.00;;;;;;5042136;28;20041;-60
2023/02/08 10:08:50;;;;;;;41.95;18.70;;;8.40;55.30;;;;;;5054409;28;20029;-62
2023/02/08 10:11:22;;;;;;;41.47;18.70;;;8.60;54.70;;;;;;5045485;28;20823;-61
2023/02/08 10:14:12;;;;;;;38.08;17.33;;;8.20;54.50;;;;;;5053627;28;20029;-61
2023/02/08 10:17:20;;;;;;;40.63;17.80;;;7.70;55.50;;;;;;5047800;28;20036;-61
2023/02/08 10:20:01;;;;;;;35.15;17.80;;;7.80;56.10;;;;;;5038739;28;20105;-60
2023/02/08 10:22:42;;;;;;;35.05;17.80;;;7.70;55.90;;;;;;5042767;28;20155;-60
2023/02/08 10:25:21;;;;;;;35.67;18.10;;;7.80;55.70;;;;;;5036337;28;20504;-61
2023/02/08 10:27:56;;;;;;;38.08;18.10;;;7.60;56.20;;;;;;5043399;28;20096;-61
2023/02/08 10:30:37;;;;;;;37.20;17.73;;;7.30;56.30;;;;;;5042252;28;20048;-58
2023/02/08 10:33:14;;;;;;;37.92;17.70;;;6.90;57.60;;;;;;5042085;28;20035;-61
2023/02/08 10:35:45;;;;;;;42.03;18.08;;;6.80;57.40;;;;;;5041019;28;20956;-61
2023/02/08 10:38:19;;;;;;;37.55;18.23;;;6.80;58.90;;;;;;5047520;28;20496;-62
2023/02/08 10:40:51;;;;;;;40.10;18.70;;;6.70;58.70;;;;;;5040640;28;20032;-61
2023/02/08 10:43:34;;;;;;;39.65;18.15;;;7.00;59.30;;;;;;5041230;28;20025;-62
2023/02/08 10:46:21;;;;;;;36.97;17.52;;;6.90;58.60;;;;;;5047124;28;20511;-61
2023/02/08 10:49:21;;;;;;;38.70;16.45;;;6.60;58.00;;;;;;5022354;28;20021;-61
2023/02/08 10:51:47;;;;;;;37.03;17.83;;;6.50;58.90;;;;;;5052116;28;20024;-61
2023/02/08 10:54:14;;;;;;;39.85;17.67;;;6.90;58.40;;;;;;5044493;28;20794;-61
2023/02/08 10:56:56;;;;;;;36.05;17.65;;;7.00;57.20;;;;;;5051175;28;20036;-62
2023/02/08 10:59:37;;;;;;;41.28;18.27;;;7.50;56.70;;;;;;5051812;28;20036;-63
2023/02/08 11:02:22;;;;;;;39.70;17.73;;;8.50;52.30;;;;;;5037546;28;20029;-61
2023/02/08 11:05:11;;;;;;;33.97;17.17;;;9.30;50.70;;;;;;5043250;28;20415;-61
2023/02/08 11:07:37;;;;;;;42.25;19.15;;;10.20;48.60;;;;;;5046936;28;20519;-62
2023/02/08 11:10:24;;;;;;;36.92;18.00;;;11.30;47.30;;;;;;5027612;28;20017;-61
2023/02/08 11:12:56;;;;;;;42.15;19.00;;;11.90;44.70;;;;;;5041980;28;20439;-62
2023/02/08 11:15:26;;;;;;;40.83;19.27;;;12.40;43.60;;;;;;5039226;28;20401;-62
2023/02/08 11:17:58;;;;;;;40.00;19.63;;;12.40;43.40;;;;;;5041009;28;20036;-63
2023/02/08 11:20:37;;;;;;;39.65;18.08;;;11.50;44.90;;;;;;5049249;28;20033;-62
2023/02/08 11:23:28;;;;;;;36.40;18.13;;;11.60;44.90;;;;;;5044555;28;20484;-61
2023/02/08 11:26:11;;;;;;;38.85;18.00;;;10.50;46.30;;;;;;5032321;28;20563;-63
2023/02/08 11:28:37;;;;;;;40.03;18.83;;;10.30;47.00;;;;;;5045080;28;20024;-61
2023/02/08 11:31:18;;;;;;;38.95;18.52;;;8.30;51.00;;;;;;5048976;28;20029;-61
2023/02/08 11:34:08;;;;;;;42.08;19.20;;;6.50;55.80;;;;;;5042465;28;20033;-61
2023/02/08 11:36:36;;;;;;;42.88;18.80;;;5.30;61.00;;;;;;5014177;28;20033;-60
2023/02/08 11:39:14;;;;;;;42.38;19.98;;;4.50;64.00;;;;;;5047385;28;20046;-62
2023/02/08 11:41:43;;;;;;;48.65;19.92;;;4.20;66.50;;;;;;5049467;28;20809;-64
2023/02/08 11:44:17;;;;;;;45.28;20.20;;;4.00;66.60;;;;;;5046834;28;20228;-61
2023/02/08 11:46:47;;;;;;;43.03;19.63;;;3.90;67.10;;;;;;5053474;28;20033;-61
2023/02/08 11:49:34;;;;;;;41.08;18.10;;;3.90;68.00;;;;;;5042580;28;20028;-61
2023/02/08 11:52:00;;;;;;;39.40;18.80;;;3.70;69.10;;;;;;5042803;28;20115;-61
2023/02/08 11:54:40;;;;;;;41.67;19.13;;;3.70;69.00;;;;;;5048627;28;20111;-61
2023/02/08 11:57:30;;;;;;;44.13;20.13;;;3.70;70.30;;;;;;5039154;28;20035;-68
2023/02/08 12:00:17;;;;;;;43.03;20.67;;;3.70;69.90;;;;;;5050303;28;20037;-61
2023/02/08 12:02:45;;;;;;;41.17;18.77;;;3.90;70.40;;;;;;5049129;28;20663;-61
2023/02/08 12:05:17;;;;;;;36.65;17.70;;;3.90;69.60;;;;;;5043683;28;20041;-60
2023/02/08 12:08:06;;;;;;;39.08;18.90;;;3.90;68.60;;;;;;5043142;28;20121;-61
2023/02/08 12:10:54;;;;;;;41.20;18.58;;;3.70;69.10;;;;;;5046406;28;20365;-60
2023/02/08 12:13:38;;;;;;;38.78;18.40;;;3.60;69.50;;;;;;5036243;28;20033;-62
2023/02/08 12:16:33;;;;;;;43.55;18.63;;;3.50;70.00;;;;;;5037018;28;20021;-61
2023/02/08 12:19:36;;;;;;;41.05;18.25;;;3.40;69.70;;;;;;5041740;28;20025;-61
2023/02/08 12:22:08;;;;;;;38.00;17.77;;;3.50;70.20;;;;;;5043011;28;20035;-60
2023/02/08 12:24:59;;;;;;;38.92;17.90;;;3.50;70.80;;;;;;5048631;28;20040;-61
2023/02/08 12:27:31;;;;;;;40.65;17.85;;;3.40;71.50;;;;;;5051081;28;20056;-63
2023/02/08 12:30:20;;;;;;;36.88;17.30;;;3.10;72.30;;;;;;5041738;28;20025;-63
2023/02/08 12:33:14;;;;;;;37.97;17.73;;;3.20;71.80;;;;;;5038022;28;20028;-67
2023/02/08 12:36:00;;;;;;;36.85;16.80;;;3.20;72.10;;;;;;5039638;28;20025;-63
2023/02/08 12:41:36;;;;;;;36.38;18.10;;;3.30;73.20;;;;;;5041048;28;20353;-60
2023/02/08 12:44:11;;;;;;;37.53;17.70;;;3.50;72.80;;;;;;5042350;28;20037;-60
2023/02/08 12:46:45;;;;;;;38.13;16.88;;;3.60;70.90;;;;;;5047843;28;20535;-61
2023/02/08 12:49:13;;;;;;;30.05;15.77;;;3.70;70.40;;;;;;5045506;28;20060;-60
2023/02/08 12:51:59;;;;;;;36.97;16.15;;;3.60;69.70;;;;;;5041919;28;20370;-61
2023/02/08 12:54:32;;;;;;;36.65;17.20;;;3.70;70.00;;;;;;5025291;28;20044;-61
2023/02/08 12:57:00;;;;;;;37.15;17.23;;;3.70;70.90;;;;;;5048009;28;20666;-61
2023/02/08 12:59:39;;;;;;;38.17;16.83;;;3.80;70.80;;;;;;5042352;28;20032;-61